createdAt,value
2023-01-04T00:01:23.654Z,96.45
2023-01-04T00:03:51.866Z,97.06
2023-01-04T00:06:20.604Z,97.60
2023-01-04T00:08:48.461Z,97.53
2023-01-04T00:11:18.862Z,98.02
2023-01-04T00:13:49.292Z,98.61
2023-01-04T00:16:19.120Z,97.87
2023-01-04T00:18:47.713Z,98.23
2023-01-04T00:21:17.431Z,98.09
2023-01-04T00:23:47.189Z,96.73
2023-01-04T00:26:16.815Z,97.01
2023-01-04T00:28:51.797Z,95.92
2023-01-04T00:31:24.612Z,95.76
2023-01-04T00:33:54.831Z,94.97
2023-01-04T00:36:23.129Z,94.46
2023-01-04T00:39:07.189Z,95.21
2023-01-04T00:41:58.299Z,94.54
2023-01-04T00:44:26.075Z,95.01
2023-01-04T00:46:55.416Z,94.51
2023-01-04T00:49:23.298Z,95.50
2023-01-04T00:51:51.125Z,96.30
2023-01-04T00:54:19.714Z,97.21
2023-01-04T00:56:47.778Z,96.72
2023-01-04T00:59:17.835Z,97.01
2023-01-04T01:01:46.880Z,96.93
2023-01-04T01:04:18.203Z,96.67
2023-01-04T01:06:46.802Z,96.11
2023-01-04T01:09:14.888Z,96.76
2023-01-04T01:11:43.102Z,98.80
2023-01-04T01:14:17.106Z,99.76
2023-01-04T01:16:54.872Z,100.00
2023-01-04T01:19:25.685Z,100.00
2023-01-04T01:21:53.610Z,100.00
2023-01-04T01:24:21.872Z,100.00
2023-01-04T01:26:49.778Z,100.00
2023-01-04T01:29:17.952Z,100.00
2023-01-04T01:31:45.931Z,100.00
2023-01-04T01:34:13.988Z,100.00
2023-01-04T01:36:43.315Z,100.00
2023-01-04T01:39:11.143Z,100.00
2023-01-04T01:41:39.011Z,100.00
2023-01-04T01:44:28.121Z,100.00
2023-01-04T01:46:56.438Z,100.00
2023-01-04T01:49:26.992Z,100.00
2023-01-04T01:51:58.730Z,100.00
2023-01-04T01:54:31.247Z,100.00
2023-01-04T01:57:03.006Z,100.00
2023-01-04T01:59:33.036Z,100.00
2023-01-04T02:02:01.053Z,100.00
2023-01-04T02:04:29.087Z,100.00
2023-01-04T02:06:59.979Z,100.00
2023-01-04T02:09:27.888Z,100.00
2023-01-04T02:11:55.660Z,100.00
2023-01-04T02:14:30.055Z,100.00
2023-01-04T02:17:10.182Z,100.00
2023-01-04T02:19:58.198Z,100.00
2023-01-04T02:22:53.459Z,100.00
2023-01-04T02:25:46.598Z,100.00
2023-01-04T02:28:24.406Z,99.31
2023-01-04T02:31:24.665Z,99.70
2023-01-04T02:33:57.902Z,99.61
2023-01-04T02:36:34.883Z,100.00
2023-01-04T02:39:12.098Z,100.00
2023-01-04T02:41:47.524Z,98.99
2023-01-04T02:44:36.163Z,98.31
2023-01-04T02:47:08.172Z,98.00
2023-01-04T02:49:55.631Z,97.97
2023-01-04T02:52:26.198Z,97.36
2023-01-04T02:54:56.708Z,97.41
2023-01-04T02:57:42.415Z,97.37
2023-01-04T03:00:35.258Z,96.64
2023-01-04T03:03:42.619Z,96.29
2023-01-04T03:06:18.502Z,96.96
2023-01-04T03:09:02.767Z,97.40
2023-01-04T03:11:57.506Z,97.48
2023-01-04T03:14:30.912Z,97.15
2023-01-04T03:17:02.537Z,96.93
2023-01-04T03:19:50.443Z,96.41
2023-01-04T03:22:41.666Z,97.05
2023-01-04T03:25:27.867Z,96.75
2023-01-04T03:28:27.679Z,95.33
2023-01-04T03:31:19.517Z,95.86
2023-01-04T03:34:05.898Z,96.25
2023-01-04T03:37:06.132Z,95.98
2023-01-04T03:40:11.732Z,95.80
2023-01-04T03:43:13.656Z,96.38
2023-01-04T03:46:03.789Z,96.31
2023-01-04T03:48:37.033Z,96.46
2023-01-04T03:51:14.784Z,96.45
2023-01-04T03:53:58.541Z,96.94
2023-01-04T03:56:29.648Z,95.91
2023-01-04T03:58:57.919Z,96.41
2023-01-04T04:01:28.212Z,96.42
2023-01-04T04:04:14.719Z,96.64
2023-01-04T04:07:00.610Z,96.07
2023-01-04T04:09:30.094Z,96.30
2023-01-04T04:11:59.368Z,95.64
2023-01-04T04:14:27.451Z,96.14
2023-01-04T04:16:55.623Z,95.67
2023-01-04T04:19:23.543Z,95.31
2023-01-04T04:21:51.484Z,95.32
2023-01-04T04:24:21.021Z,94.76
2023-01-04T04:26:50.387Z,94.63
2023-01-04T04:29:18.920Z,95.09
2023-01-04T04:31:46.857Z,94.71
2023-01-04T04:34:14.919Z,94.42
2023-01-04T04:36:42.892Z,95.29
2023-01-04T04:39:11.849Z,95.31
2023-01-04T04:41:39.319Z,95.46
2023-01-04T04:44:09.549Z,95.55
2023-01-04T04:46:37.493Z,94.95
2023-01-04T04:49:05.894Z,94.80
2023-01-04T04:51:34.187Z,94.73
2023-01-04T04:54:02.373Z,94.22
2023-01-04T04:56:30.236Z,94.26
2023-01-04T04:58:58.221Z,94.77
2023-01-04T05:01:27.623Z,94.03
2023-01-04T05:03:55.943Z,94.29
2023-01-04T05:06:23.907Z,93.79
2023-01-04T05:08:52.095Z,94.48
2023-01-04T05:11:40.711Z,93.92
2023-01-04T05:14:07.865Z,93.47
2023-01-04T05:16:37.438Z,93.85
2023-01-04T05:19:05.396Z,93.25
2023-01-04T05:21:33.197Z,93.76
2023-01-04T05:24:01.137Z,93.41
2023-01-04T05:26:29.038Z,93.79
2023-01-04T05:28:56.972Z,94.00
2023-01-04T05:31:24.732Z,94.13
2023-01-04T05:33:54.036Z,94.27
2023-01-04T05:36:21.947Z,94.58
2023-01-04T05:38:49.792Z,94.54
2023-01-04T05:41:35.347Z,93.99
2023-01-04T05:44:03.181Z,94.28
2023-01-04T05:46:31.054Z,94.41
2023-01-04T05:49:00.421Z,94.74
2023-01-04T05:51:28.314Z,94.84
2023-01-04T05:53:56.102Z,93.93
2023-01-04T05:56:23.995Z,93.87
2023-01-04T05:58:51.799Z,93.93
2023-01-04T06:01:19.685Z,94.25
2023-01-04T06:03:47.699Z,94.20
2023-01-04T06:06:17.063Z,94.19
2023-01-04T06:08:44.869Z,94.01
2023-01-04T06:11:12.860Z,94.39
2023-01-04T06:13:40.728Z,94.64
2023-01-04T06:16:09.045Z,93.82
2023-01-04T06:18:36.854Z,93.64
2023-01-04T06:21:04.780Z,93.19
2023-01-04T06:23:34.114Z,92.77
2023-01-04T06:26:01.981Z,92.27
2023-01-04T06:28:34.162Z,92.23
2023-01-04T06:31:05.831Z,92.68
2023-01-04T06:33:33.847Z,92.14
2023-01-04T06:36:02.303Z,91.53
2023-01-04T06:38:30.200Z,91.80
2023-01-04T06:40:59.424Z,91.67
2023-01-04T06:43:27.423Z,91.63
2023-01-04T06:45:55.619Z,91.42
2023-01-04T06:48:23.548Z,91.54
2023-01-04T06:50:51.422Z,91.00
2023-01-04T06:53:19.356Z,90.79
2023-01-04T06:55:47.262Z,90.60
2023-01-04T06:58:16.556Z,91.02
2023-01-04T07:00:44.422Z,90.96
2023-01-04T07:03:14.389Z,90.72
2023-01-04T07:05:44.284Z,90.49
2023-01-04T07:08:13.198Z,90.64
2023-01-04T07:10:41.610Z,91.06
2023-01-04T07:13:10.437Z,90.78
2023-01-04T07:15:40.874Z,90.69
2023-01-04T07:18:09.761Z,90.41
2023-01-04T07:20:37.738Z,90.42
2023-01-04T07:23:06.191Z,90.39
2023-01-04T07:25:34.076Z,90.04
2023-01-04T07:28:02.012Z,90.71
2023-01-04T07:30:30.348Z,90.89
2023-01-04T07:32:59.661Z,91.02
2023-01-04T07:35:28.275Z,91.33
2023-01-04T07:37:59.151Z,92.09
2023-01-04T07:40:27.644Z,91.83
2023-01-04T07:42:57.685Z,92.40
2023-01-04T07:45:26.584Z,92.74
2023-01-04T07:47:54.564Z,92.19
2023-01-04T07:50:24.010Z,92.87
2023-01-04T07:52:51.932Z,92.66
2023-01-04T07:55:19.826Z,92.86
2023-01-04T07:57:47.771Z,92.75
2023-01-04T08:00:16.418Z,93.18
2023-01-04T08:02:44.422Z,92.31
2023-01-04T08:05:12.617Z,92.23
2023-01-04T08:07:41.893Z,93.19
2023-01-04T08:10:09.997Z,92.57
2023-01-04T08:12:37.960Z,92.01
2023-01-04T08:15:06.828Z,91.06
2023-01-04T08:17:35.129Z,91.52
2023-01-04T08:20:02.998Z,91.25
2023-01-04T08:22:30.895Z,90.66
2023-01-04T08:25:00.322Z,90.48
2023-01-04T08:27:28.252Z,91.13
2023-01-04T08:29:56.106Z,90.64
2023-01-04T08:32:23.939Z,90.42
2023-01-04T08:34:51.840Z,89.62
2023-01-04T08:37:19.681Z,90.30
2023-01-04T08:39:49.754Z,89.60
2023-01-04T08:42:25.086Z,89.74
2023-01-04T08:45:01.193Z,89.44
2023-01-04T08:47:29.974Z,89.43
2023-01-04T08:49:58.607Z,89.17
2023-01-04T08:52:26.668Z,88.99
2023-01-04T08:54:54.964Z,89.32
2023-01-04T08:57:24.233Z,88.95
2023-01-04T08:59:52.048Z,89.23
2023-01-04T09:02:23.047Z,87.70
2023-01-04T09:04:51.359Z,88.84
2023-01-04T09:07:19.755Z,87.80
2023-01-04T09:09:47.745Z,87.74
2023-01-04T09:12:15.621Z,87.49
2023-01-04T09:14:44.808Z,87.16
2023-01-04T09:17:12.697Z,86.98
2023-01-04T09:19:40.620Z,86.42
2023-01-04T09:22:08.549Z,86.57
2023-01-04T09:24:36.785Z,86.38
2023-01-04T09:27:05.014Z,86.46
2023-01-04T09:29:32.817Z,85.90
2023-01-04T09:32:02.234Z,85.81
2023-01-04T09:34:30.251Z,85.54
2023-01-04T09:36:58.203Z,85.71
2023-01-04T09:39:30.393Z,85.68
2023-01-04T09:42:01.423Z,86.17
2023-01-04T09:47:35.980Z,85.28
2023-01-04T09:50:07.630Z,86.33
2023-01-04T09:52:48.614Z,86.30
2023-01-04T09:55:37.249Z,85.57
2023-01-04T09:58:18.455Z,86.35
2023-01-04T10:00:49.907Z,86.35
2023-01-04T10:03:25.903Z,85.76
2023-01-04T10:05:56.134Z,85.91
2023-01-04T10:08:24.545Z,86.20
2023-01-04T10:11:05.220Z,85.99
2023-01-04T10:13:47.267Z,86.47
2023-01-04T10:16:44.092Z,86.00
2023-01-04T10:21:08.548Z,86.31
2023-01-04T10:22:21.002Z,86.72
2023-01-04T10:24:59.635Z,85.88
2023-01-04T10:27:42.468Z,86.29
2023-01-04T10:30:30.694Z,85.67
2023-01-04T10:33:10.217Z,85.61
2023-01-04T10:35:40.960Z,85.14
2023-01-04T10:38:16.815Z,85.40
2023-01-04T10:40:48.137Z,84.96
2023-01-04T10:43:25.964Z,85.92
2023-01-04T10:46:01.200Z,84.90
2023-01-04T10:48:40.854Z,85.76
2023-01-04T10:51:14.068Z,85.88
2023-01-04T10:53:47.519Z,84.58
2023-01-04T10:56:25.867Z,85.05
2023-01-04T10:59:04.651Z,84.93
2023-01-04T11:01:36.963Z,83.75
2023-01-04T11:04:09.211Z,84.36
2023-01-04T11:06:43.279Z,84.99
2023-01-04T11:09:22.961Z,84.54
2023-01-04T11:11:56.180Z,84.03
2023-01-04T11:14:25.640Z,84.75
2023-01-04T11:16:59.095Z,84.27
2023-01-04T11:19:28.410Z,84.35
2023-01-04T11:22:01.602Z,83.56
2023-01-04T11:24:33.759Z,83.83
2023-01-04T11:27:07.162Z,84.17
2023-01-04T11:29:42.506Z,84.77
2023-01-04T11:32:20.577Z,84.30
2023-01-04T11:34:52.145Z,84.54
2023-01-04T11:37:34.498Z,83.71
2023-01-04T11:40:23.974Z,83.69
2023-01-04T11:42:53.851Z,83.95
2023-01-04T11:45:25.160Z,84.28
2023-01-04T11:47:55.117Z,83.88
2023-01-04T11:50:42.147Z,83.28
2023-01-04T11:53:30.427Z,84.36
2023-01-04T11:56:20.898Z,84.09
2023-01-04T11:59:24.466Z,84.43
2023-01-04T12:02:11.143Z,84.85
2023-01-04T12:04:39.209Z,85.52
2023-01-04T12:07:16.056Z,84.63
2023-01-04T12:09:45.282Z,84.63
2023-01-04T12:12:15.957Z,85.01
2023-01-04T12:14:48.779Z,84.15
2023-01-04T12:17:22.568Z,85.31
2023-01-04T12:19:54.500Z,85.45
2023-01-04T12:22:26.008Z,84.94
2023-01-04T12:25:00.460Z,84.42
2023-01-04T12:27:29.133Z,85.69
2023-01-04T12:30:01.950Z,84.47
2023-01-04T12:32:47.114Z,84.54
2023-01-04T12:36:04.093Z,85.44
2023-01-04T12:39:22.805Z,84.91
2023-01-04T12:42:31.210Z,84.96
2023-01-04T12:45:15.009Z,84.29
2023-01-04T12:48:02.079Z,85.50
2023-01-04T12:50:32.101Z,85.23
2023-01-04T12:53:28.923Z,84.33
2023-01-04T12:55:54.402Z,84.53
2023-01-04T13:02:17.562Z,83.92
2023-01-04T13:04:45.683Z,84.49
2023-01-04T13:07:19.188Z,84.38
2023-01-04T13:09:54.293Z,83.92
2023-01-04T13:12:51.872Z,83.89
2023-01-04T13:15:25.783Z,83.61
2023-01-04T13:17:54.412Z,84.02
2023-01-04T13:20:25.741Z,83.16
2023-01-04T13:22:55.333Z,83.40
2023-01-04T13:25:25.246Z,83.37
2023-01-04T13:27:57.648Z,82.78
2023-01-04T13:30:35.990Z,82.94
2023-01-04T13:33:28.755Z,83.11
2023-01-04T13:36:10.481Z,82.80
2023-01-04T13:38:41.126Z,82.98
2023-01-04T13:41:21.996Z,82.27
2023-01-04T13:44:03.680Z,82.82
2023-01-04T13:46:33.267Z,82.79
2023-01-04T13:49:03.341Z,82.58
2023-01-04T13:51:37.824Z,82.80
2023-01-04T13:54:07.859Z,82.59
2023-01-04T13:56:36.565Z,81.86
2023-01-04T13:59:04.591Z,81.96
2023-01-04T14:01:38.072Z,81.85
2023-01-04T14:04:08.772Z,82.08
2023-01-04T14:06:44.187Z,82.34
2023-01-04T14:09:18.537Z,82.29
2023-01-04T14:12:06.378Z,82.23
2023-01-04T14:14:48.603Z,82.65
2023-01-04T14:17:31.540Z,82.10
2023-01-04T14:20:00.596Z,82.03
2023-01-04T14:22:43.208Z,83.19
2023-01-04T14:25:56.453Z,82.93
2023-01-04T14:28:32.637Z,82.94
2023-01-04T14:31:37.575Z,82.78
2023-01-04T14:34:15.597Z,82.64
2023-01-04T14:36:44.670Z,83.11
2023-01-04T14:39:32.756Z,82.18
2023-01-04T14:42:01.507Z,82.91
2023-01-04T14:44:31.905Z,83.04
2023-01-04T14:47:03.969Z,83.53
2023-01-04T14:49:33.568Z,83.01
2023-01-04T14:52:03.688Z,83.98
2023-01-04T14:54:35.066Z,83.67
2023-01-04T14:57:03.821Z,83.79
2023-01-04T14:59:32.162Z,83.39
2023-01-04T15:02:00.493Z,83.83
2023-01-04T15:04:28.894Z,83.83
2023-01-04T15:07:00.840Z,84.35
2023-01-04T15:09:30.125Z,84.54
2023-01-04T15:11:58.766Z,84.18
2023-01-04T15:14:27.254Z,84.55
2023-01-04T15:16:55.119Z,84.39
2023-01-04T15:19:22.960Z,84.31
2023-01-04T15:21:50.801Z,84.81
2023-01-04T15:24:20.013Z,84.57
2023-01-04T15:26:49.073Z,85.38
2023-01-04T15:29:17.028Z,85.69
2023-01-04T15:31:44.844Z,85.20
2023-01-04T15:34:13.636Z,85.77
2023-01-04T15:36:41.616Z,85.47
2023-01-04T15:39:12.638Z,85.62
2023-01-04T15:41:59.537Z,85.93
2023-01-04T15:44:27.820Z,85.52
2023-01-04T15:46:56.087Z,86.32
2023-01-04T15:49:24.074Z,85.50
2023-01-04T15:51:51.980Z,85.39
2023-01-04T15:54:21.697Z,85.36
2023-01-04T15:56:51.132Z,85.62
2023-01-04T15:59:19.089Z,86.24
2023-01-04T16:01:47.404Z,85.63
2023-01-04T16:04:15.897Z,86.13
2023-01-04T16:06:43.839Z,85.71
2023-01-04T16:09:11.857Z,85.88
2023-01-04T16:12:01.035Z,86.24
2023-01-04T16:14:30.398Z,86.04
2023-01-04T16:16:58.329Z,85.72
2023-01-04T16:19:26.319Z,86.08
2023-01-04T16:21:54.207Z,86.61
2023-01-04T16:25:00.452Z,86.05
2023-01-04T16:27:10.576Z,86.11
2023-01-04T16:29:39.709Z,86.01
2023-01-04T16:32:07.855Z,86.82
2023-01-04T16:34:35.716Z,86.22
2023-01-04T16:37:03.592Z,85.92
2023-01-04T16:40:05.370Z,86.15
2023-01-04T16:42:19.472Z,85.87
2023-01-04T16:44:48.857Z,86.26
2023-01-04T16:47:16.742Z,85.59
2023-01-04T16:49:44.719Z,85.70
2023-01-04T16:52:14.114Z,85.91
2023-01-04T16:54:41.958Z,86.19
2023-01-04T16:57:09.882Z,85.48
2023-01-04T16:59:37.705Z,86.25
2023-01-04T17:02:07.063Z,85.32
2023-01-04T17:04:35.145Z,85.27
2023-01-04T17:07:03.193Z,85.90
2023-01-04T17:09:31.041Z,86.20
2023-01-04T17:15:00.793Z,85.06
2023-01-04T17:17:37.100Z,84.99
2023-01-04T17:20:07.188Z,85.83
2023-01-04T17:22:35.435Z,85.65
2023-01-04T17:25:03.619Z,85.29
2023-01-04T17:27:31.507Z,85.50
2023-01-04T17:29:59.323Z,85.40
2023-01-04T17:32:27.212Z,85.59
2023-01-04T17:34:57.603Z,85.70
2023-01-04T17:37:25.471Z,85.95
2023-01-04T17:39:54.329Z,86.37
2023-01-04T17:42:23.021Z,85.97
2023-01-04T17:44:51.282Z,86.43
2023-01-04T17:47:19.274Z,86.77
2023-01-04T17:49:47.164Z,86.63
2023-01-04T17:52:22.122Z,87.31
2023-01-04T17:54:54.737Z,87.44
2023-01-04T17:57:22.563Z,87.37
2023-01-04T17:59:50.487Z,88.00
2023-01-04T18:02:18.624Z,88.57
2023-01-04T18:04:46.560Z,88.76
2023-01-04T18:07:15.845Z,89.23
2023-01-04T18:09:43.835Z,89.45
2023-01-04T18:12:11.766Z,89.89
2023-01-04T18:14:39.644Z,89.70
2023-01-04T18:17:07.474Z,89.67
2023-01-04T18:19:35.418Z,90.76
2023-01-04T18:22:04.179Z,91.09
2023-01-04T18:24:36.615Z,90.88
2023-01-04T18:27:23.313Z,91.63
2023-01-04T18:29:53.767Z,91.74
2023-01-04T18:32:21.932Z,91.27
2023-01-04T18:34:49.965Z,91.79
2023-01-04T18:37:18.837Z,91.29
2023-01-04T18:39:48.709Z,91.88
2023-01-04T18:42:16.986Z,91.61
2023-01-04T18:44:49.020Z,92.09
2023-01-04T18:47:19.714Z,92.32
2023-01-04T18:49:47.923Z,92.16
2023-01-04T18:52:16.202Z,92.73
2023-01-04T18:54:45.026Z,92.45
2023-01-04T18:57:14.916Z,92.53
2023-01-04T18:59:42.786Z,92.63
2023-01-04T19:02:17.155Z,93.22
2023-01-04T19:04:45.287Z,92.70
2023-01-04T19:07:13.263Z,92.92
2023-01-04T19:09:42.583Z,92.79
2023-01-04T19:12:10.688Z,93.66
2023-01-04T19:14:40.286Z,92.75
2023-01-04T19:17:08.583Z,93.70
2023-01-04T19:19:36.997Z,93.63
2023-01-04T19:22:04.907Z,93.53
2023-01-04T19:24:32.741Z,93.96
2023-01-04T19:27:03.247Z,94.68
2023-01-04T19:29:31.928Z,94.29
2023-01-04T19:32:01.222Z,94.92
2023-01-04T19:34:29.300Z,95.73
2023-01-04T19:36:57.643Z,95.75
2023-01-04T19:39:25.537Z,97.79
2023-01-04T19:41:53.420Z,97.82
2023-01-04T19:44:21.371Z,98.63
2023-01-04T19:46:49.361Z,99.48
2023-01-04T19:49:18.533Z,99.60
2023-01-04T19:51:47.328Z,100.00
2023-01-04T19:54:18.689Z,100.00
2023-01-04T19:56:52.458Z,100.00
2023-01-04T19:59:20.684Z,100.00
2023-01-04T20:01:48.686Z,100.00
2023-01-04T20:04:18.013Z,100.00
2023-01-04T20:06:45.882Z,100.00
2023-01-04T20:09:13.679Z,100.00
2023-01-04T20:11:41.497Z,100.00
2023-01-04T20:14:09.305Z,100.00
2023-01-04T20:16:37.190Z,100.00
2023-01-04T20:19:05.049Z,100.00
2023-01-04T20:21:34.287Z,100.00
2023-01-04T20:24:02.352Z,100.00
2023-01-04T20:26:30.219Z,100.00
2023-01-04T20:28:58.051Z,100.00
2023-01-04T20:31:25.877Z,100.00
2023-01-04T20:33:53.787Z,100.00
2023-01-04T20:36:23.299Z,100.00
2023-01-04T20:38:52.517Z,100.00
2023-01-04T20:41:22.439Z,100.00
2023-01-04T20:43:50.177Z,100.00
2023-01-04T20:46:20.319Z,100.00
2023-01-04T20:48:48.584Z,100.00
2023-01-04T20:51:18.147Z,100.00
2023-01-04T20:53:46.107Z,100.00
2023-01-04T20:56:16.924Z,100.00
2023-01-04T20:58:45.670Z,100.00
2023-01-04T21:01:14.093Z,100.00
2023-01-04T21:03:42.167Z,100.00
2023-01-04T21:06:12.581Z,100.00
2023-01-04T21:08:42.292Z,100.00
2023-01-04T21:11:11.687Z,100.00
2023-01-04T21:13:40.943Z,100.00
2023-01-04T21:16:09.626Z,100.00
2023-01-04T21:18:38.366Z,100.00
2023-01-04T21:21:07.508Z,100.00
2023-01-04T21:23:36.569Z,100.00
2023-01-04T21:26:09.194Z,100.00
2023-01-04T21:28:37.118Z,100.00
2023-01-04T21:31:12.147Z,100.00
2023-01-04T21:33:40.191Z,100.00
2023-01-04T21:36:12.632Z,100.00
2023-01-04T21:38:40.446Z,100.00
2023-01-04T21:41:09.771Z,100.00
2023-01-04T21:43:38.095Z,100.00
2023-01-04T21:46:07.507Z,100.00
2023-01-04T21:48:36.815Z,100.00
2023-01-04T21:51:06.128Z,100.00
2023-01-04T21:53:36.198Z,100.00
2023-01-04T21:56:06.790Z,100.00
2023-01-04T21:58:34.685Z,100.00
2023-01-04T22:01:03.083Z,100.00
2023-01-04T22:03:31.292Z,100.00
2023-01-04T22:06:03.371Z,100.00
2023-01-04T22:08:31.961Z,100.00
2023-01-04T22:10:59.789Z,100.00
2023-01-04T22:13:28.328Z,100.00
2023-01-04T22:15:56.356Z,100.00
2023-01-04T22:18:24.222Z,100.00
2023-01-04T22:20:52.159Z,100.00
2023-01-04T22:23:21.321Z,100.00
2023-01-04T22:25:49.264Z,100.00
2023-01-04T22:28:17.113Z,100.00
2023-01-04T22:30:44.986Z,100.00
2023-01-04T22:33:12.881Z,100.00
2023-01-04T22:35:41.121Z,100.00
2023-01-04T22:38:09.274Z,100.00
2023-01-04T22:40:39.499Z,100.00
2023-01-04T22:43:07.643Z,100.00
2023-01-04T22:45:35.909Z,100.00
2023-01-04T22:48:03.818Z,100.00
2023-01-04T22:50:31.712Z,100.00
2023-01-04T22:53:20.038Z,100.00
2023-01-04T22:58:37.621Z,100.00
2023-01-04T23:01:06.564Z,100.00
2023-01-04T23:03:35.171Z,100.00
2023-01-04T23:06:05.873Z,100.00
2023-01-04T23:08:33.697Z,100.00
2023-01-04T23:11:07.683Z,100.00
2023-01-04T23:13:35.941Z,100.00
2023-01-04T23:16:06.339Z,100.00
2023-01-04T23:18:34.618Z,100.00
2023-01-04T23:21:03.143Z,100.00
2023-01-04T23:23:31.151Z,100.00
2023-01-04T23:26:03.959Z,100.00
2023-01-04T23:28:35.990Z,100.00
2023-01-04T23:31:04.959Z,100.00
2023-01-04T23:33:36.294Z,99.97
2023-01-04T23:36:09.511Z,100.00
2023-01-04T23:38:38.225Z,100.00
2023-01-04T23:41:06.607Z,100.00
2023-01-04T23:43:38.424Z,100.00
2023-01-04T23:46:07.643Z,100.00
2023-01-04T23:48:35.655Z,100.00
2023-01-04T23:51:03.463Z,100.00
2023-01-04T23:53:31.280Z,100.00
2023-01-04T23:56:02.306Z,100.00
2023-01-04T23:58:31.442Z,100.00
